createdAt,value
2018-09-11T00:01:39.125Z,19.00
2018-09-11T00:04:06.647Z,18.90
2018-09-11T00:06:34.180Z,18.90
2018-09-11T00:09:01.611Z,18.90
2018-09-11T00:11:28.997Z,18.90
2018-09-11T00:13:56.365Z,18.90
2018-09-11T00:16:23.718Z,18.80
2018-09-11T00:18:51.119Z,18.80
2018-09-11T00:21:18.546Z,18.80
2018-09-11T00:23:45.943Z,18.80
2018-09-11T00:26:13.423Z,18.80
2018-09-11T00:28:40.888Z,18.80
2018-09-11T00:31:08.236Z,18.80
2018-09-11T00:33:35.633Z,18.70
2018-09-11T00:36:03.068Z,18.70
2018-09-11T00:38:30.422Z,18.60
2018-09-11T00:40:57.835Z,18.60
2018-09-11T00:43:25.201Z,18.60
2018-09-11T00:45:52.786Z,18.50
2018-09-11T00:48:20.234Z,18.50
2018-09-11T00:50:47.831Z,18.50
2018-09-11T00:53:15.294Z,18.50
2018-09-11T00:55:42.655Z,18.50
2018-09-11T00:58:10.132Z,18.50
2018-09-11T01:00:37.936Z,18.40
2018-09-11T01:03:05.412Z,18.40
2018-09-11T01:05:32.769Z,18.40
2018-09-11T01:08:01.952Z,18.40
2018-09-11T01:10:29.306Z,18.30
2018-09-11T01:12:56.677Z,18.30
2018-09-11T01:15:24.147Z,18.30
2018-09-11T01:17:51.506Z,18.30
2018-09-11T01:20:18.933Z,18.30
2018-09-11T01:22:46.472Z,18.30
2018-09-11T01:25:13.905Z,18.30
2018-09-11T01:27:41.315Z,18.30
2018-09-11T01:30:08.749Z,18.20
2018-09-11T01:32:36.353Z,18.20
2018-09-11T01:35:03.720Z,18.20
2018-09-11T01:37:33.726Z,18.30
2018-09-11T01:40:01.113Z,18.30
2018-09-11T01:42:28.551Z,18.20
2018-09-11T01:44:55.955Z,18.20
2018-09-11T01:47:23.437Z,18.20
2018-09-11T01:49:50.882Z,18.20
2018-09-11T01:52:18.407Z,18.20
2018-09-11T01:54:46.967Z,18.10
2018-09-11T01:57:14.327Z,18.10
2018-09-11T01:59:41.812Z,18.00
2018-09-11T02:02:09.159Z,18.00
2018-09-11T02:04:36.647Z,18.00
2018-09-11T02:07:04.227Z,18.00
2018-09-11T02:09:31.760Z,18.00
2018-09-11T02:11:59.119Z,18.10
2018-09-11T02:14:26.484Z,18.00
2018-09-11T02:16:53.900Z,18.00
2018-09-11T02:19:21.364Z,18.00
2018-09-11T02:21:48.794Z,18.00
2018-09-11T02:24:16.229Z,18.00
2018-09-11T02:26:43.651Z,18.00
2018-09-11T02:29:11.032Z,18.00
2018-09-11T02:31:38.371Z,18.00
2018-09-11T02:34:05.916Z,18.00
2018-09-11T02:36:33.312Z,18.00
2018-09-11T02:39:00.839Z,17.90
2018-09-11T02:41:28.246Z,17.90
2018-09-11T02:43:55.861Z,17.90
2018-09-11T02:46:24.005Z,17.90
2018-09-11T02:48:51.415Z,17.90
2018-09-11T02:51:18.826Z,17.90
2018-09-11T02:53:46.365Z,17.90
2018-09-11T02:56:13.736Z,17.90
2018-09-11T02:58:42.690Z,17.90
2018-09-11T03:01:10.058Z,18.00
2018-09-11T03:03:37.437Z,17.90
2018-09-11T03:06:04.798Z,18.00
2018-09-11T03:08:32.148Z,18.00
2018-09-11T03:10:59.560Z,18.00
2018-09-11T03:13:27.005Z,18.00
2018-09-11T03:15:54.361Z,18.00
2018-09-11T03:18:21.703Z,18.00
2018-09-11T03:20:52.082Z,18.00
2018-09-11T03:23:19.500Z,18.00
2018-09-11T03:25:46.956Z,18.00
2018-09-11T03:28:14.401Z,18.00
2018-09-11T03:30:41.784Z,18.00
2018-09-11T03:33:09.154Z,18.00
2018-09-11T03:35:36.520Z,18.00
2018-09-11T03:38:03.969Z,18.00
2018-09-11T03:40:31.379Z,18.00
2018-09-11T03:42:58.801Z,17.90
2018-09-11T03:45:26.183Z,17.90
2018-09-11T03:47:53.519Z,18.00
2018-09-11T03:50:20.933Z,18.00
2018-09-11T03:52:48.234Z,17.90
2018-09-11T03:55:15.678Z,17.90
2018-09-11T03:57:43.092Z,17.90
2018-09-11T04:00:10.524Z,17.90
2018-09-11T04:02:38.265Z,17.90
2018-09-11T04:05:06.031Z,17.90
2018-09-11T04:07:33.444Z,17.90
2018-09-11T04:10:00.814Z,18.00
2018-09-11T04:12:28.171Z,18.00
2018-09-11T04:14:55.643Z,18.00
2018-09-11T04:17:27.328Z,18.00
2018-09-11T04:19:54.822Z,18.00
2018-09-11T04:22:22.215Z,18.00
2018-09-11T04:24:49.582Z,18.00
2018-09-11T04:27:16.966Z,18.00
2018-09-11T04:29:44.376Z,18.00
2018-09-11T04:32:11.827Z,18.10
2018-09-11T04:34:39.301Z,18.00
2018-09-11T04:37:06.664Z,18.00
2018-09-11T04:39:34.846Z,18.00
2018-09-11T04:42:02.403Z,18.10
2018-09-11T04:44:29.880Z,18.10
2018-09-11T04:46:57.355Z,18.10
2018-09-11T04:49:24.808Z,18.20
2018-09-11T04:51:52.655Z,18.30
2018-09-11T04:54:20.060Z,18.30
2018-09-11T04:56:47.547Z,18.30
2018-09-11T04:59:14.929Z,18.30
2018-09-11T05:01:42.378Z,18.40
2018-09-11T05:04:09.831Z,18.30
2018-09-11T05:06:37.213Z,18.30
2018-09-11T05:09:06.561Z,18.30
2018-09-11T05:11:34.017Z,18.30
2018-09-11T05:14:01.488Z,18.30
2018-09-11T05:16:29.160Z,18.30
2018-09-11T05:18:56.521Z,18.40
2018-09-11T05:21:25.711Z,18.40
2018-09-11T05:23:53.079Z,18.40
2018-09-11T05:26:20.573Z,18.40
2018-09-11T05:28:47.917Z,18.40
2018-09-11T05:31:15.419Z,18.50
2018-09-11T05:33:42.849Z,18.40
2018-09-11T05:36:10.299Z,18.50
2018-09-11T05:38:37.736Z,18.50
2018-09-11T05:41:05.290Z,18.50
2018-09-11T05:43:32.944Z,18.50
2018-09-11T05:46:00.402Z,18.60
2018-09-11T05:48:28.053Z,18.60
2018-09-11T05:50:55.499Z,18.60
2018-09-11T05:53:22.847Z,18.70
2018-09-11T05:55:50.246Z,18.70
2018-09-11T05:58:17.711Z,18.70
2018-09-11T06:00:45.036Z,18.70
2018-09-11T06:03:12.543Z,18.80
2018-09-11T06:05:40.019Z,18.80
2018-09-11T06:08:07.455Z,18.80
2018-09-11T06:10:34.793Z,18.80
2018-09-11T06:13:02.200Z,18.80
2018-09-11T06:15:29.534Z,18.80
2018-09-11T06:17:56.906Z,18.80
2018-09-11T06:20:24.311Z,18.90
2018-09-11T06:22:51.675Z,19.00
2018-09-11T06:25:19.104Z,19.00
2018-09-11T06:27:46.481Z,19.10
2018-09-11T06:30:13.922Z,19.20
2018-09-11T06:32:41.371Z,19.30
2018-09-11T06:35:08.943Z,19.50
2018-09-11T06:37:36.381Z,19.60
2018-09-11T06:40:04.519Z,19.70
2018-09-11T06:42:31.889Z,19.80
2018-09-11T06:44:59.244Z,19.90
2018-09-11T06:47:27.809Z,19.90
2018-09-11T06:49:55.260Z,19.90
2018-09-11T06:52:22.637Z,19.80
2018-09-11T06:57:32.619Z,19.90
2018-09-11T07:00:00.251Z,20.00
2018-09-11T07:02:28.163Z,20.10
2018-09-11T07:04:55.539Z,20.20
2018-09-11T07:07:22.963Z,20.40
2018-09-11T07:09:50.371Z,20.50
2018-09-11T07:12:17.869Z,20.60
2018-09-11T07:14:45.804Z,20.70
2018-09-11T07:17:13.275Z,20.80
2018-09-11T07:19:40.696Z,20.90
2018-09-11T07:22:09.576Z,20.90
2018-09-11T07:24:36.977Z,21.00
2018-09-11T07:27:04.479Z,21.00
2018-09-11T07:29:32.023Z,20.90
2018-09-11T07:31:59.361Z,20.90
2018-09-11T07:34:26.920Z,21.00
2018-09-11T07:36:54.279Z,21.00
2018-09-11T07:39:21.716Z,21.00
2018-09-11T07:41:49.114Z,21.10
2018-09-11T07:44:16.662Z,21.20
2018-09-11T07:46:44.153Z,21.30
2018-09-11T07:49:11.576Z,21.50
2018-09-11T07:51:39.040Z,21.60
2018-09-11T07:54:06.504Z,21.80
2018-09-11T07:56:33.859Z,21.80
2018-09-11T07:59:01.228Z,21.90
2018-09-11T08:01:28.622Z,21.90
2018-09-11T08:03:55.975Z,22.10
2018-09-11T08:06:23.363Z,22.10
2018-09-11T08:08:50.687Z,22.20
2018-09-11T08:11:18.109Z,22.20
2018-09-11T08:13:45.529Z,22.30
2018-09-11T08:16:12.870Z,22.10
2018-09-11T08:18:40.328Z,22.30
2018-09-11T08:21:08.109Z,22.40
2018-09-11T08:23:35.675Z,22.50
2018-09-11T08:26:03.167Z,22.40
2018-09-11T08:28:30.591Z,22.30
2018-09-11T08:30:57.943Z,22.30
2018-09-11T08:33:25.311Z,22.30
2018-09-11T08:35:52.646Z,22.40
2018-09-11T08:38:20.004Z,22.60
2018-09-11T08:40:47.553Z,22.60
2018-09-11T08:43:15.132Z,22.70
2018-09-11T08:45:42.591Z,22.80
2018-09-11T08:48:09.992Z,22.80
2018-09-11T08:50:37.368Z,23.00
2018-09-11T08:53:04.820Z,23.10
2018-09-11T08:55:32.202Z,23.30
2018-09-11T08:57:59.628Z,23.30
2018-09-11T09:00:27.116Z,23.40
2018-09-11T09:02:54.471Z,23.30
2018-09-11T09:05:21.925Z,23.20
2018-09-11T09:07:49.435Z,23.20
2018-09-11T09:10:16.840Z,23.20
2018-09-11T09:12:44.285Z,23.30
2018-09-11T09:15:11.728Z,23.40
2018-09-11T09:17:39.163Z,23.30
2018-09-11T09:20:06.513Z,23.30
2018-09-11T09:22:35.222Z,23.30
2018-09-11T09:25:09.247Z,23.30
2018-09-11T09:27:36.667Z,23.40
2018-09-11T09:30:04.028Z,23.60
2018-09-11T09:32:31.377Z,23.80
2018-09-11T09:34:58.850Z,23.80
2018-09-11T09:37:26.314Z,23.90
2018-09-11T09:39:53.684Z,24.10
2018-09-11T09:42:21.036Z,24.40
2018-09-11T09:44:48.443Z,24.60
2018-09-11T09:47:15.855Z,24.80
2018-09-11T09:49:43.280Z,24.80
2018-09-11T09:52:10.625Z,24.90
2018-09-11T09:54:37.988Z,24.90
2018-09-11T09:57:05.456Z,24.70
2018-09-11T09:59:32.985Z,24.70
2018-09-11T10:02:04.635Z,24.60
2018-09-11T10:04:32.359Z,24.60
2018-09-11T10:06:59.743Z,24.30
2018-09-11T10:09:27.233Z,24.20
2018-09-11T10:11:54.757Z,24.10
2018-09-11T10:14:21.978Z,24.00
2018-09-11T10:16:49.409Z,24.00
2018-09-11T10:19:16.775Z,23.90
2018-09-11T10:21:44.257Z,23.90
2018-09-11T10:24:11.671Z,23.90
2018-09-11T10:26:39.065Z,24.00
2018-09-11T10:29:06.469Z,24.10
2018-09-11T10:31:34.259Z,24.00
2018-09-11T10:34:01.601Z,24.10
2018-09-11T10:36:28.974Z,24.20
2018-09-11T10:38:56.375Z,24.40
2018-09-11T10:41:23.725Z,24.50
2018-09-11T10:43:51.182Z,24.70
2018-09-11T10:46:18.569Z,24.70
2018-09-11T10:48:47.419Z,24.70
2018-09-11T10:51:14.726Z,24.70
2018-09-11T10:53:42.088Z,24.90
2018-09-11T10:56:09.444Z,25.00
2018-09-11T10:58:36.823Z,25.20
2018-09-11T11:01:04.163Z,25.40
2018-09-11T11:03:31.580Z,25.40
2018-09-11T11:05:58.999Z,25.40
2018-09-11T11:08:26.392Z,25.30
2018-09-11T11:10:53.780Z,25.40
2018-09-11T11:13:21.170Z,25.50
2018-09-11T11:15:48.716Z,25.50
2018-09-11T11:18:16.145Z,25.40
2018-09-11T11:20:43.596Z,25.40
2018-09-11T11:23:11.121Z,25.50
2018-09-11T11:25:39.251Z,25.50
2018-09-11T11:28:06.729Z,25.60
2018-09-11T11:30:34.173Z,25.80
2018-09-11T11:33:01.517Z,25.80
2018-09-11T11:35:28.991Z,25.60
2018-09-11T11:37:56.387Z,25.70
2018-09-11T11:40:23.780Z,25.70
2018-09-11T11:42:51.187Z,25.90
2018-09-11T11:45:18.540Z,26.10
2018-09-11T11:47:45.907Z,26.30
2018-09-11T11:50:13.288Z,26.40
2018-09-11T11:52:40.725Z,26.50
2018-09-11T11:55:08.288Z,26.50
2018-09-11T11:57:35.959Z,26.50
2018-09-11T12:00:03.644Z,26.40
2018-09-11T12:02:31.028Z,26.40
2018-09-11T12:04:58.513Z,26.60
2018-09-11T12:07:25.888Z,26.60
2018-09-11T12:09:53.294Z,26.70
2018-09-11T12:12:20.897Z,26.50
2018-09-11T12:14:49.580Z,26.60
2018-09-11T12:17:17.044Z,26.60
2018-09-11T12:19:44.488Z,26.40
2018-09-11T12:22:11.903Z,26.20
2018-09-11T12:24:39.245Z,26.00
2018-09-11T12:27:06.607Z,26.00
2018-09-11T12:29:33.968Z,25.90
2018-09-11T12:32:01.507Z,25.80
2018-09-11T12:34:28.911Z,25.80
2018-09-11T12:36:56.333Z,25.80
2018-09-11T12:39:23.730Z,25.90
2018-09-11T12:41:51.196Z,25.90
2018-09-11T12:44:18.617Z,26.00
2018-09-11T12:46:46.281Z,26.10
2018-09-11T12:49:13.534Z,26.10
2018-09-11T12:51:40.912Z,26.10
2018-09-11T12:54:08.301Z,26.00
2018-09-11T12:56:35.725Z,25.90
2018-09-11T12:59:03.097Z,25.80
2018-09-11T13:01:30.468Z,25.90
2018-09-11T13:03:57.898Z,25.90
2018-09-11T13:06:25.300Z,26.00
2018-09-11T13:08:52.677Z,26.10
2018-09-11T13:11:20.167Z,26.10
2018-09-11T13:13:47.566Z,26.10
2018-09-11T13:16:14.984Z,26.20
2018-09-11T13:18:42.458Z,26.10
2018-09-11T13:21:09.823Z,26.10
2018-09-11T13:23:37.176Z,26.10
2018-09-11T13:26:04.540Z,26.00
2018-09-11T13:28:31.901Z,26.00
2018-09-11T13:30:59.412Z,25.90
2018-09-11T13:33:26.936Z,25.80
2018-09-11T13:35:54.336Z,25.80
2018-09-11T13:38:21.736Z,25.90
2018-09-11T13:40:49.160Z,25.80
2018-09-11T13:43:16.531Z,25.90
2018-09-11T13:45:43.892Z,25.90
2018-09-11T13:48:11.344Z,25.90
2018-09-11T13:50:38.709Z,25.90
2018-09-11T13:53:06.126Z,26.10
2018-09-11T13:55:33.552Z,26.30
2018-09-11T13:58:00.932Z,26.40
2018-09-11T14:00:28.330Z,26.50
2018-09-11T14:02:55.903Z,26.40
2018-09-11T14:05:23.368Z,26.40
2018-09-11T14:07:50.836Z,26.40
2018-09-11T14:10:18.377Z,26.40
2018-09-11T14:12:45.803Z,26.40
2018-09-11T14:15:13.335Z,26.40
2018-09-11T14:17:40.860Z,26.50
2018-09-11T14:20:09.038Z,26.70
2018-09-11T14:22:36.668Z,26.70
2018-09-11T14:25:04.132Z,26.80
2018-09-11T14:27:31.594Z,26.80
2018-09-11T14:29:59.125Z,27.00
2018-09-11T14:32:26.547Z,26.90
2018-09-11T14:34:54.989Z,26.90
2018-09-11T14:37:22.583Z,26.80
2018-09-11T14:39:50.209Z,26.80
2018-09-11T14:42:17.672Z,26.80
2018-09-11T14:44:46.277Z,26.80
2018-09-11T14:47:13.643Z,27.00
2018-09-11T14:49:41.288Z,27.20
2018-09-11T14:52:09.674Z,27.30
2018-09-11T14:54:37.375Z,27.50
2018-09-11T14:57:04.997Z,27.50
2018-09-11T14:59:32.422Z,27.60
2018-09-11T15:01:59.836Z,27.70
2018-09-11T15:04:27.235Z,27.80
2018-09-11T15:06:54.741Z,27.80
2018-09-11T15:09:22.180Z,27.50
2018-09-11T15:11:49.529Z,27.50
2018-09-11T15:14:17.115Z,27.40
2018-09-11T15:16:44.480Z,27.40
2018-09-11T15:19:11.876Z,27.40
2018-09-11T15:21:40.020Z,27.30
2018-09-11T15:24:07.484Z,27.30
2018-09-11T15:26:34.896Z,27.20
2018-09-11T15:29:02.376Z,27.20
2018-09-11T15:31:29.713Z,27.10
2018-09-11T15:33:57.115Z,27.10
2018-09-11T15:36:24.555Z,27.10
2018-09-11T15:38:51.992Z,27.10
2018-09-11T15:41:19.636Z,27.20
2018-09-11T15:43:47.303Z,27.40
2018-09-11T15:46:14.752Z,27.90
2018-09-11T15:48:42.164Z,28.60
2018-09-11T15:51:09.510Z,29.80
2018-09-11T15:53:37.066Z,31.20
2018-09-11T15:56:04.618Z,32.60
2018-09-11T15:58:31.992Z,33.50
2018-09-11T16:00:59.375Z,33.70
2018-09-11T16:03:26.916Z,34.20
2018-09-11T16:05:54.393Z,34.80
2018-09-11T16:08:21.895Z,35.20
2018-09-11T16:10:49.407Z,35.00
2018-09-11T16:13:18.361Z,34.30
2018-09-11T16:15:45.797Z,34.00
2018-09-11T16:18:13.303Z,34.20
2018-09-11T16:20:41.070Z,34.80
2018-09-11T16:23:08.770Z,35.20
2018-09-11T16:25:36.405Z,35.70
2018-09-11T16:28:03.816Z,35.60
2018-09-11T16:30:31.164Z,35.40
2018-09-11T16:32:58.999Z,35.40
2018-09-11T16:35:26.387Z,35.60
2018-09-11T16:37:53.810Z,35.60
2018-09-11T16:40:21.306Z,35.50
2018-09-11T16:42:48.783Z,35.20
2018-09-11T16:45:16.298Z,34.10
2018-09-11T16:47:43.671Z,32.70
2018-09-11T16:50:11.046Z,31.30
2018-09-11T16:52:38.394Z,30.30
2018-09-11T16:55:06.103Z,29.50
2018-09-11T16:57:33.520Z,28.70
2018-09-11T17:00:00.962Z,28.20
2018-09-11T17:02:28.391Z,27.80
2018-09-11T17:04:55.744Z,27.40
2018-09-11T17:07:23.754Z,27.20
2018-09-11T17:09:51.263Z,27.00
2018-09-11T17:12:18.749Z,26.70
2018-09-11T17:14:46.249Z,26.40
2018-09-11T17:17:13.647Z,26.20
2018-09-11T17:19:41.086Z,26.10
2018-09-11T17:22:08.525Z,25.90
2018-09-11T17:24:37.039Z,25.70
2018-09-11T17:27:04.562Z,25.50
2018-09-11T17:29:31.916Z,25.30
2018-09-11T17:31:59.357Z,25.10
2018-09-11T17:34:26.906Z,25.00
2018-09-11T17:36:54.317Z,24.90
2018-09-11T17:39:23.151Z,24.80
2018-09-11T17:41:50.568Z,24.80
2018-09-11T17:44:17.941Z,24.70
2018-09-11T17:46:45.469Z,24.60
2018-09-11T17:49:12.982Z,24.50
2018-09-11T17:51:40.306Z,24.30
2018-09-11T17:54:09.482Z,24.20
2018-09-11T17:56:37.992Z,24.20
2018-09-11T17:59:05.449Z,24.10
2018-09-11T18:01:32.896Z,24.10
2018-09-11T18:04:00.373Z,24.10
2018-09-11T18:06:28.120Z,24.00
2018-09-11T18:08:56.129Z,23.90
2018-09-11T18:11:23.484Z,23.90
2018-09-11T18:13:51.248Z,23.80
2018-09-11T18:16:20.099Z,23.60
2018-09-11T18:18:47.696Z,23.60
2018-09-11T18:21:15.391Z,23.60
2018-09-11T18:23:43.007Z,23.60
2018-09-11T18:26:10.408Z,23.50
2018-09-11T18:28:38.166Z,23.50
2018-09-11T18:31:05.613Z,23.60
2018-09-11T18:33:33.246Z,23.60
2018-09-11T18:36:00.770Z,23.60
2018-09-11T18:38:29.619Z,23.70
2018-09-11T18:40:57.254Z,23.70
2018-09-11T18:43:24.765Z,23.70
2018-09-11T18:45:52.192Z,23.70
2018-09-11T18:48:19.723Z,23.60
2018-09-11T18:50:47.184Z,23.50
2018-09-11T18:53:14.648Z,23.50
2018-09-11T18:55:42.080Z,23.50
2018-09-11T18:58:09.518Z,23.40
2018-09-11T19:00:37.003Z,23.40
2018-09-11T19:03:04.469Z,23.40
2018-09-11T19:05:32.013Z,23.40
2018-09-11T19:08:00.006Z,23.40
2018-09-11T19:10:27.757Z,23.50
2018-09-11T19:12:55.186Z,23.50
2018-09-11T19:15:22.571Z,23.50
2018-09-11T19:17:49.987Z,23.50
2018-09-11T19:20:17.449Z,23.50
2018-09-11T19:22:44.878Z,23.60
2018-09-11T19:25:12.275Z,23.60
2018-09-11T19:27:39.717Z,23.60
2018-09-11T19:30:08.108Z,23.60
2018-09-11T19:32:35.542Z,23.60
2018-09-11T19:35:02.911Z,23.60
2018-09-11T19:37:30.327Z,23.60
2018-09-11T19:39:57.892Z,23.70
2018-09-11T19:42:25.398Z,23.70
2018-09-11T19:44:52.701Z,23.80
2018-09-11T19:47:20.248Z,23.80
2018-09-11T19:49:47.637Z,23.80
2018-09-11T19:52:15.118Z,23.80
2018-09-11T19:54:42.481Z,23.80
2018-09-11T19:57:10.024Z,23.80
2018-09-11T19:59:37.396Z,23.80
2018-09-11T20:02:04.921Z,23.70
2018-09-11T20:04:32.366Z,23.60
2018-09-11T20:06:59.751Z,23.60
2018-09-11T20:09:27.357Z,23.60
2018-09-11T20:11:54.802Z,23.50
2018-09-11T20:14:22.354Z,23.50
2018-09-11T20:16:51.198Z,23.40
2018-09-11T20:19:18.633Z,23.40
2018-09-11T20:21:46.016Z,23.30
2018-09-11T20:24:14.488Z,23.10
2018-09-11T20:26:41.955Z,23.10
2018-09-11T20:29:09.695Z,23.00
2018-09-11T20:31:37.097Z,23.00
2018-09-11T20:34:04.543Z,23.00
2018-09-11T20:36:31.935Z,22.90
2018-09-11T20:38:59.390Z,22.90
2018-09-11T20:41:27.280Z,23.00
2018-09-11T20:43:55.118Z,22.90
2018-09-11T20:46:22.514Z,22.90
2018-09-11T20:48:49.940Z,22.90
2018-09-11T20:51:17.368Z,22.90
2018-09-11T20:53:45.022Z,22.90
2018-09-11T20:56:12.802Z,22.90
2018-09-11T20:58:40.498Z,22.80
2018-09-11T21:01:08.084Z,22.80
2018-09-11T21:03:35.978Z,22.80
2018-09-11T21:06:03.353Z,22.70
2018-09-11T21:08:30.778Z,22.60
2018-09-11T21:10:58.456Z,22.50
2018-09-11T21:13:25.973Z,22.40
2018-09-11T21:15:53.443Z,22.30
2018-09-11T21:18:20.864Z,22.30
2018-09-11T21:20:49.088Z,22.20
2018-09-11T21:23:16.470Z,22.20
2018-09-11T21:25:44.195Z,22.20
2018-09-11T21:28:11.605Z,22.20
2018-09-11T21:30:39.223Z,22.20
2018-09-11T21:33:06.594Z,22.20
2018-09-11T21:35:34.007Z,22.20
2018-09-11T21:38:01.547Z,22.10
2018-09-11T21:40:29.119Z,22.10
2018-09-11T21:42:56.508Z,22.00
2018-09-11T21:45:24.097Z,22.00
2018-09-11T21:47:52.210Z,22.00
2018-09-11T21:50:19.553Z,22.00
2018-09-11T21:52:46.919Z,22.00
2018-09-11T21:55:14.260Z,22.10
2018-09-11T21:57:41.731Z,22.10
2018-09-11T22:00:10.097Z,22.10
2018-09-11T22:02:37.498Z,22.10
2018-09-11T22:05:05.293Z,22.10
2018-09-11T22:07:32.630Z,22.10
2018-09-11T22:10:00.036Z,22.00
2018-09-11T22:12:27.490Z,21.90
2018-09-11T22:14:54.840Z,21.80
2018-09-11T22:17:22.220Z,21.70
2018-09-11T22:19:49.861Z,21.70
2018-09-11T22:22:17.200Z,21.60
2018-09-11T22:24:44.560Z,21.50
2018-09-11T22:27:11.994Z,21.50
2018-09-11T22:29:39.347Z,21.50
2018-09-11T22:32:06.702Z,21.50
2018-09-11T22:34:34.071Z,21.50
2018-09-11T22:37:01.539Z,21.50
2018-09-11T22:39:28.868Z,21.40
2018-09-11T22:41:56.256Z,21.40
2018-09-11T22:44:23.612Z,21.40
2018-09-11T22:46:51.523Z,21.40
2018-09-11T22:49:18.916Z,21.40
2018-09-11T22:51:46.431Z,21.30
2018-09-11T22:54:13.784Z,21.20
2018-09-11T22:56:41.132Z,21.20
2018-09-11T22:59:08.527Z,21.20
2018-09-11T23:01:35.883Z,21.10
2018-09-11T23:04:03.262Z,21.10
2018-09-11T23:06:30.693Z,21.10
2018-09-11T23:08:58.058Z,21.10
2018-09-11T23:11:25.425Z,21.10
2018-09-11T23:13:52.899Z,21.10
2018-09-11T23:16:20.250Z,21.10
2018-09-11T23:18:47.654Z,21.10
2018-09-11T23:21:15.103Z,21.10
2018-09-11T23:23:42.622Z,21.10
2018-09-11T23:26:10.032Z,21.20
2018-09-11T23:28:37.391Z,21.20
2018-09-11T23:31:04.733Z,21.20
2018-09-11T23:33:32.087Z,21.20
2018-09-11T23:35:59.487Z,21.20
2018-09-11T23:38:26.892Z,21.20
2018-09-11T23:40:54.348Z,21.20
2018-09-11T23:43:21.824Z,21.20
2018-09-11T23:45:49.195Z,21.10
2018-09-11T23:48:16.672Z,21.10
2018-09-11T23:50:44.131Z,21.10
2018-09-11T23:53:11.639Z,21.10
2018-09-11T23:55:39.184Z,21.10
2018-09-11T23:58:06.536Z,21.10
